Time;durP1;ratioP1;P1;durP2;ratioP2;P2;SDS_P1;SDS_P2;PMS_P1;PMS_P2;Temp;Humidity;BMP_temperature;BMP_pressure;BME280_temperature;BME280_humidity;BME280_pressure;Samples;Min_cycle;Max_cycle;Signal;HPM_P1;HPM_P2
2021/09/16 00:00:40;;;;;;;3.25;0.45;;;14.60;99.90;;;;;;4705391;30;20074;-87
2021/09/16 00:03:06;;;;;;;2.78;0.43;;;14.60;99.90;;;;;;4718784;30;20172;-88
2021/09/16 00:05:33;;;;;;;4.10;0.50;;;14.50;99.90;;;;;;4732406;30;20059;-87
2021/09/16 00:08:01;;;;;;;3.30;0.30;;;14.50;99.90;;;;;;4716498;30;20064;-88
2021/09/16 00:10:27;;;;;;;1.25;0.47;;;14.50;99.90;;;;;;4703531;30;20052;-88
2021/09/16 00:12:54;;;;;;;3.75;0.40;;;14.50;99.90;;;;;;4706896;30;20057;-88
2021/09/16 00:15:20;;;;;;;3.28;0.40;;;14.40;99.90;;;;;;4707156;30;20056;-82
2021/09/16 00:17:47;;;;;;;3.10;0.52;;;14.40;99.90;;;;;;4719811;30;20059;-82
2021/09/16 00:20:13;;;;;;;4.72;0.40;;;14.40;99.90;;;;;;4719077;30;20052;-81
2021/09/16 00:22:40;;;;;;;3.42;0.50;;;14.40;99.90;;;;;;4718942;30;20504;-81
2021/09/16 00:25:07;;;;;;;2.55;0.30;;;14.40;99.90;;;;;;4717448;30;20151;-82
2021/09/16 00:27:34;;;;;;;2.35;0.40;;;14.30;99.90;;;;;;4718454;30;20148;-82
2021/09/16 00:30:01;;;;;;;4.82;0.30;;;14.30;99.90;;;;;;4718231;30;20104;-82
2021/09/16 00:32:27;;;;;;;1.20;0.30;;;14.30;99.90;;;;;;4720881;30;20051;-82
2021/09/16 00:34:53;;;;;;;2.42;0.40;;;14.20;99.90;;;;;;4735600;30;20040;-82
2021/09/16 00:37:20;;;;;;;3.42;0.30;;;14.20;99.90;;;;;;4737300;30;20405;-82
2021/09/16 00:39:46;;;;;;;3.15;0.47;;;14.20;99.90;;;;;;4749205;30;20060;-82
2021/09/16 00:42:15;;;;;;;3.22;0.30;;;14.10;99.90;;;;;;4733696;30;20539;-82
2021/09/16 00:44:42;;;;;;;4.32;0.30;;;14.10;99.90;;;;;;4735498;30;20392;-82
2021/09/16 00:47:10;;;;;;;5.30;0.60;;;14.10;99.90;;;;;;4750284;30;20058;-82
2021/09/16 00:49:37;;;;;;;3.08;0.43;;;14.10;99.90;;;;;;4750469;30;20063;-82
2021/09/16 00:52:06;;;;;;;1.80;0.40;;;14.00;99.90;;;;;;4738897;30;20044;-82
2021/09/16 00:54:34;;;;;;;3.63;0.40;;;14.00;99.90;;;;;;4734342;30;20056;-82
2021/09/16 00:57:02;;;;;;;1.77;0.32;;;14.00;99.90;;;;;;4734033;30;20062;-82
2021/09/16 00:59:29;;;;;;;2.10;0.35;;;14.00;99.90;;;;;;4739935;30;20603;-82
2021/09/16 01:01:56;;;;;;;1.75;0.28;;;14.10;99.90;;;;;;4736345;30;20068;-82
2021/09/16 01:04:22;;;;;;;3.78;0.40;;;14.20;99.90;;;;;;4723216;30;20052;-83
2021/09/16 01:06:49;;;;;;;2.30;0.30;;;14.20;99.90;;;;;;4737655;30;20052;-82
2021/09/16 01:09:16;;;;;;;2.65;0.40;;;14.30;99.90;;;;;;4742590;30;20522;-81
2021/09/16 01:11:42;;;;;;;2.55;0.40;;;14.30;99.90;;;;;;4724611;30;20052;-83
2021/09/16 01:14:08;;;;;;;5.35;0.45;;;14.30;99.90;;;;;;4738859;30;20488;-83
2021/09/16 01:16:35;;;;;;;3.25;0.70;;;14.30;99.90;;;;;;4746862;30;20063;-82
2021/09/16 01:19:02;;;;;;;2.13;0.60;;;14.40;99.90;;;;;;4729965;30;20064;-83
2021/09/16 01:21:29;;;;;;;1.60;0.45;;;14.40;99.90;;;;;;4716203;30;20052;-83
2021/09/16 01:23:55;;;;;;;2.50;0.40;;;14.40;99.90;;;;;;4732249;30;20524;-82
2021/09/16 01:26:22;;;;;;;1.15;0.30;;;14.40;99.90;;;;;;4720750;30;20083;-82
2021/09/16 01:28:48;;;;;;;2.10;0.30;;;14.30;99.90;;;;;;4730368;30;20052;-83
2021/09/16 01:31:15;;;;;;;3.88;0.50;;;14.30;99.90;;;;;;4729224;30;20060;-84
2021/09/16 01:33:42;;;;;;;2.30;0.30;;;14.30;99.90;;;;;;4718091;30;20071;-83
2021/09/16 01:36:12;;;;;;;6.70;0.40;;;14.20;99.90;;;;;;4734261;30;20048;-83
2021/09/16 01:38:38;;;;;;;3.30;0.30;;;14.20;99.90;;;;;;4729479;30;20066;-83
2021/09/16 01:41:04;;;;;;;5.22;0.90;;;14.10;99.90;;;;;;4718383;30;20048;-82
2021/09/16 01:43:31;;;;;;;3.90;0.55;;;14.10;99.90;;;;;;4717818;30;20059;-82
2021/09/16 01:45:58;;;;;;;3.40;0.60;;;14.10;99.90;;;;;;4748011;30;20059;-82
2021/09/16 01:48:33;;;;;;;2.35;0.30;;;14.00;99.90;;;;;;4748147;30;20094;-81
2021/09/16 01:51:00;;;;;;;2.78;0.30;;;14.00;99.90;;;;;;4746825;30;20055;-81
2021/09/16 01:53:26;;;;;;;2.17;0.40;;;14.00;99.90;;;;;;4733024;30;20055;-82
2021/09/16 01:55:53;;;;;;;1.70;0.20;;;14.00;99.90;;;;;;4750368;30;20040;-82
2021/09/16 01:58:19;;;;;;;1.75;0.20;;;14.00;99.90;;;;;;4733592;30;20502;-82
2021/09/16 02:00:45;;;;;;;2.97;0.30;;;13.90;99.90;;;;;;4719437;30;20048;-82
2021/09/16 02:03:12;;;;;;;1.73;0.30;;;13.90;99.90;;;;;;4733854;30;20081;-82
2021/09/16 02:05:39;;;;;;;3.03;0.30;;;13.90;99.90;;;;;;4748556;30;20047;-82
2021/09/16 02:08:05;;;;;;;1.85;0.30;;;13.90;99.90;;;;;;4734165;30;20035;-82
2021/09/16 02:10:32;;;;;;;3.83;0.50;;;13.80;99.90;;;;;;4748002;30;20060;-82
2021/09/16 02:12:58;;;;;;;1.95;0.30;;;13.80;99.90;;;;;;4736291;30;20058;-82
2021/09/16 02:15:25;;;;;;;2.13;0.30;;;13.80;99.90;;;;;;4723680;30;20044;-82
2021/09/16 02:17:51;;;;;;;3.85;0.30;;;13.80;99.90;;;;;;4706005;30;20063;-82
2021/09/16 02:20:18;;;;;;;3.08;0.40;;;13.80;99.90;;;;;;4733689;30;20063;-82
2021/09/16 02:22:44;;;;;;;2.75;0.40;;;13.80;99.90;;;;;;4733835;30;20951;-82
2021/09/16 02:25:11;;;;;;;2.58;0.40;;;13.90;99.90;;;;;;4734010;30;20067;-82
2021/09/16 02:27:37;;;;;;;4.15;0.40;;;14.00;99.90;;;;;;4722776;30;20044;-82
2021/09/16 02:30:05;;;;;;;2.15;0.45;;;14.00;99.90;;;;;;4749195;30;20048;-82
2021/09/16 02:32:32;;;;;;;5.05;0.40;;;14.10;99.90;;;;;;4737211;30;20051;-82
2021/09/16 02:34:59;;;;;;;2.17;0.32;;;14.10;99.90;;;;;;4752370;30;20413;-82
2021/09/16 02:37:25;;;;;;;2.80;0.40;;;14.20;99.90;;;;;;4726249;30;20040;-82
2021/09/16 02:39:52;;;;;;;2.38;0.55;;;14.20;99.90;;;;;;4719748;30;20650;-82
2021/09/16 02:42:18;;;;;;;3.15;0.40;;;14.30;99.90;;;;;;4721309;30;20412;-83
2021/09/16 02:44:44;;;;;;;3.35;0.40;;;14.40;99.90;;;;;;4739479;30;20056;-82
2021/09/16 02:47:11;;;;;;;2.83;0.60;;;14.40;99.90;;;;;;4751899;30;20485;-82
2021/09/16 02:49:37;;;;;;;5.55;0.50;;;14.50;99.90;;;;;;4723157;30;20978;-81
2021/09/16 02:52:04;;;;;;;3.75;0.35;;;14.50;99.90;;;;;;4725212;30;20432;-82
2021/09/16 02:54:30;;;;;;;4.72;0.50;;;14.60;99.90;;;;;;4738343;30;20082;-82
2021/09/16 02:56:57;;;;;;;2.53;0.30;;;14.60;99.90;;;;;;4738914;30;20055;-82
2021/09/16 02:59:23;;;;;;;4.95;0.50;;;14.70;99.90;;;;;;4741841;30;20056;-82
2021/09/16 03:01:50;;;;;;;3.85;0.63;;;14.70;99.90;;;;;;4755298;30;20059;-82
2021/09/16 03:04:16;;;;;;;3.42;0.40;;;14.70;99.90;;;;;;4737520;30;20054;-82
2021/09/16 03:06:43;;;;;;;3.45;0.43;;;14.80;99.90;;;;;;4725547;30;20071;-82
2021/09/16 03:09:09;;;;;;;2.35;0.50;;;14.80;99.90;;;;;;4730189;30;20067;-82
2021/09/16 03:11:36;;;;;;;2.80;0.40;;;14.80;99.90;;;;;;4735372;30;20067;-82
2021/09/16 03:14:02;;;;;;;3.50;0.38;;;14.90;99.90;;;;;;4758436;30;20614;-82
2021/09/16 03:16:29;;;;;;;3.55;0.43;;;14.90;99.90;;;;;;4709721;30;20063;-83
2021/09/16 03:18:55;;;;;;;1.75;0.50;;;14.90;99.90;;;;;;4754879;30;20048;-83
2021/09/16 03:21:21;;;;;;;3.25;0.57;;;14.90;99.90;;;;;;4752064;30;20055;-83
2021/09/16 03:23:48;;;;;;;2.53;0.40;;;15.00;99.90;;;;;;4730746;30;20424;-83
2021/09/16 03:26:14;;;;;;;1.58;0.50;;;15.00;99.90;;;;;;4725635;30;20052;-83
2021/09/16 03:28:41;;;;;;;2.72;0.40;;;15.00;99.90;;;;;;4753231;30;20397;-83
2021/09/16 03:31:08;;;;;;;3.10;0.38;;;15.00;99.90;;;;;;4715249;30;20052;-83
2021/09/16 03:33:34;;;;;;;2.53;0.40;;;15.10;99.90;;;;;;4729949;30;20068;-83
2021/09/16 03:36:01;;;;;;;4.00;0.50;;;15.00;99.90;;;;;;4744347;30;20066;-83
2021/09/16 03:38:29;;;;;;;3.47;0.30;;;15.10;99.90;;;;;;4732321;30;20066;-83
2021/09/16 03:40:55;;;;;;;4.18;0.60;;;15.00;99.90;;;;;;4731763;30;20413;-83
2021/09/16 03:43:22;;;;;;;1.33;0.30;;;15.00;99.90;;;;;;4733002;30;20788;-83
2021/09/16 03:45:49;;;;;;;2.22;0.50;;;15.10;99.90;;;;;;4730664;30;20063;-84
2021/09/16 03:48:15;;;;;;;1.45;0.40;;;15.10;99.90;;;;;;4703093;30;20052;-83
2021/09/16 03:50:42;;;;;;;2.67;0.45;;;15.10;99.90;;;;;;4745890;30;20036;-84
2021/09/16 03:53:08;;;;;;;4.90;0.50;;;15.10;99.90;;;;;;4730986;30;20048;-84
2021/09/16 03:55:35;;;;;;;1.98;0.50;;;15.10;99.90;;;;;;4732530;30;20074;-84
2021/09/16 03:58:01;;;;;;;1.90;0.32;;;15.10;99.90;;;;;;4751603;30;20043;-84
2021/09/16 04:00:28;;;;;;;3.92;0.57;;;15.00;99.90;;;;;;4715608;30;20074;-83
2021/09/16 04:02:55;;;;;;;4.25;0.60;;;15.10;99.90;;;;;;4747974;30;20523;-84
2021/09/16 04:05:21;;;;;;;2.00;0.43;;;15.10;99.90;;;;;;4720523;30;20068;-85
2021/09/16 04:07:48;;;;;;;4.40;0.60;;;15.00;99.90;;;;;;4749962;30;20064;-86
2021/09/16 04:10:14;;;;;;;3.42;0.50;;;15.10;99.90;;;;;;4741576;30;20048;-85
2021/09/16 04:12:41;;;;;;;2.17;0.50;;;15.00;99.90;;;;;;4732478;30;20771;-86
2021/09/16 04:15:09;;;;;;;2.53;0.43;;;15.10;99.90;;;;;;4734219;30;20064;-84
2021/09/16 04:17:36;;;;;;;2.97;0.43;;;15.00;99.90;;;;;;4746077;30;20089;-84
2021/09/16 04:20:03;;;;;;;3.60;0.63;;;15.00;99.90;;;;;;4716749;30;20411;-84
2021/09/16 04:22:29;;;;;;;4.50;0.80;;;15.00;99.90;;;;;;4745787;30;20047;-84
2021/09/16 04:24:55;;;;;;;5.15;1.52;;;15.00;99.90;;;;;;4722612;30;20060;-85
2021/09/16 04:27:22;;;;;;;4.45;0.60;;;15.10;99.90;;;;;;4736688;30;20501;-84
2021/09/16 04:29:48;;;;;;;2.30;0.50;;;15.00;99.90;;;;;;4719655;30;20445;-84
2021/09/16 04:32:15;;;;;;;4.53;0.60;;;15.10;99.90;;;;;;4721614;30;20059;-84
2021/09/16 04:34:41;;;;;;;3.42;0.60;;;15.10;99.90;;;;;;4736665;30;20044;-85
2021/09/16 04:37:08;;;;;;;5.30;0.80;;;15.00;99.90;;;;;;4728613;30;20571;-86
2021/09/16 04:39:34;;;;;;;3.10;0.50;;;15.00;99.90;;;;;;4735602;30;20056;-86
2021/09/16 04:42:01;;;;;;;4.82;0.60;;;15.00;99.90;;;;;;4723416;30;20551;-86
2021/09/16 04:44:27;;;;;;;2.05;0.57;;;15.00;99.90;;;;;;4722300;30;20060;-87
2021/09/16 04:46:53;;;;;;;3.30;0.60;;;15.00;99.90;;;;;;4737719;30;20059;-87
2021/09/16 04:49:20;;;;;;;2.35;0.50;;;15.00;99.90;;;;;;4735190;30;20417;-87
2021/09/16 04:51:47;;;;;;;1.73;0.47;;;15.00;99.90;;;;;;4706497;30;20056;-87
2021/09/16 04:54:13;;;;;;;2.05;0.40;;;15.00;99.90;;;;;;4734851;30;20064;-88
2021/09/16 04:56:40;;;;;;;3.85;1.00;;;15.00;99.90;;;;;;4749820;30;20463;-87
2021/09/16 04:59:06;;;;;;;3.13;0.50;;;15.10;99.90;;;;;;4739042;30;20060;-90
2021/09/16 05:01:33;;;;;;;2.50;0.57;;;15.00;99.90;;;;;;4712614;30;20066;-87
2021/09/16 05:04:02;;;;;;;2.20;0.50;;;15.00;99.90;;;;;;4722589;30;20499;-87
2021/09/16 05:06:29;;;;;;;4.07;0.73;;;15.00;99.90;;;;;;4739213;30;20507;-88
2021/09/16 05:08:56;;;;;;;4.75;0.60;;;15.00;99.90;;;;;;4723502;30;20056;-85
2021/09/16 05:11:23;;;;;;;1.85;0.50;;;15.00;99.90;;;;;;4753282;30;20039;-86
2021/09/16 05:13:50;;;;;;;2.55;0.40;;;15.10;99.90;;;;;;4739442;30;20366;-86
2021/09/16 05:16:16;;;;;;;2.67;0.50;;;15.00;99.90;;;;;;4713860;30;20592;-85
2021/09/16 05:18:43;;;;;;;1.15;0.40;;;15.00;99.90;;;;;;4715931;30;20052;-86
2021/09/16 05:21:11;;;;;;;3.28;0.40;;;15.00;99.90;;;;;;4728707;30;20523;-85
2021/09/16 05:23:38;;;;;;;2.80;0.75;;;15.10;99.90;;;;;;4728948;30;20056;-86
2021/09/16 05:26:04;;;;;;;2.50;0.50;;;15.10;99.90;;;;;;4735236;30;20056;-85
2021/09/16 05:28:31;;;;;;;2.17;0.50;;;15.10;99.90;;;;;;4726620;30;20062;-85
2021/09/16 05:30:58;;;;;;;4.05;0.50;;;15.10;99.90;;;;;;4713213;30;20514;-86
2021/09/16 05:33:24;;;;;;;2.65;0.45;;;15.10;99.90;;;;;;4744408;30;20044;-85
2021/09/16 05:35:51;;;;;;;2.38;0.60;;;15.10;99.90;;;;;;4714557;30;20044;-85
2021/09/16 05:38:18;;;;;;;2.80;0.40;;;15.10;99.90;;;;;;4716193;30;20056;-86
2021/09/16 05:40:44;;;;;;;2.47;0.38;;;15.10;99.90;;;;;;4728963;30;20056;-85
2021/09/16 05:43:11;;;;;;;5.45;0.80;;;15.10;99.90;;;;;;4747418;30;20051;-85
2021/09/16 05:45:39;;;;;;;2.47;0.50;;;15.10;99.90;;;;;;4744604;30;20059;-86
2021/09/16 05:48:06;;;;;;;2.10;0.32;;;15.10;99.90;;;;;;4714451;30;20052;-86
2021/09/16 05:50:33;;;;;;;4.88;0.80;;;15.10;99.90;;;;;;4716350;30;20050;-85
2021/09/16 05:53:00;;;;;;;2.08;0.40;;;15.10;99.90;;;;;;4706951;30;20052;-86
2021/09/16 05:55:27;;;;;;;1.65;0.30;;;15.10;99.90;;;;;;4732423;30;20525;-85
2021/09/16 05:57:53;;;;;;;2.58;0.30;;;15.10;99.90;;;;;;4733745;30;20504;-90
2021/09/16 06:00:23;;;;;;;3.70;0.40;;;15.10;99.90;;;;;;4717591;30;20047;-86
2021/09/16 06:02:50;;;;;;;4.13;0.80;;;15.10;99.90;;;;;;4731044;30;20048;-85
2021/09/16 06:05:17;;;;;;;3.58;0.50;;;15.10;99.90;;;;;;4721132;30;20052;-85
2021/09/16 06:07:44;;;;;;;2.20;0.50;;;15.10;99.90;;;;;;4718763;30;20394;-85
2021/09/16 06:10:10;;;;;;;4.63;0.73;;;15.10;99.90;;;;;;4733356;30;20075;-85
2021/09/16 06:12:37;;;;;;;2.55;0.43;;;15.10;99.90;;;;;;4746813;30;20417;-87
2021/09/16 06:15:05;;;;;;;2.30;0.65;;;15.00;99.90;;;;;;4718107;30;20056;-87
2021/09/16 06:17:32;;;;;;;3.28;0.40;;;15.00;99.90;;;;;;4747715;30;20043;-86
2021/09/16 06:19:59;;;;;;;3.90;0.73;;;14.90;99.90;;;;;;4733740;30;20070;-86
2021/09/16 06:22:26;;;;;;;4.47;0.60;;;14.80;99.90;;;;;;4702954;30;20056;-87
2021/09/16 06:24:53;;;;;;;2.05;0.40;;;14.80;99.90;;;;;;4734894;30;20048;-87
2021/09/16 06:27:20;;;;;;;4.03;0.60;;;14.80;99.90;;;;;;4732827;30;20357;-86
2021/09/16 06:29:47;;;;;;;2.72;0.43;;;14.80;99.90;;;;;;4719997;30;20051;-86
2021/09/16 06:32:13;;;;;;;3.30;0.30;;;14.80;99.90;;;;;;4718442;30;20067;-86
2021/09/16 06:34:40;;;;;;;4.60;0.63;;;14.70;99.90;;;;;;4718439;30;20052;-87
2021/09/16 06:37:07;;;;;;;2.70;0.32;;;14.80;99.90;;;;;;4733341;30;20071;-86
2021/09/16 06:39:34;;;;;;;2.88;0.40;;;14.70;99.90;;;;;;4747921;30;20067;-86
2021/09/16 06:42:01;;;;;;;2.15;0.38;;;14.70;99.90;;;;;;4720165;30;20543;-86
2021/09/16 06:44:27;;;;;;;2.78;0.60;;;14.70;99.90;;;;;;4733275;30;20056;-87
2021/09/16 06:46:54;;;;;;;1.23;0.30;;;14.70;99.90;;;;;;4747869;30;20573;-84
2021/09/16 06:49:21;;;;;;;4.00;0.68;;;14.70;99.90;;;;;;4753077;30;20327;-84
2021/09/16 06:51:51;;;;;;;4.20;0.50;;;14.70;99.90;;;;;;4735083;30;20100;-85
2021/09/16 06:54:18;;;;;;;3.33;0.60;;;14.70;99.90;;;;;;4732657;30;20417;-85
2021/09/16 06:56:44;;;;;;;4.03;0.65;;;14.70;99.90;;;;;;4716317;30;20067;-85
2021/09/16 06:59:11;;;;;;;2.33;0.50;;;14.80;99.90;;;;;;4718523;30;20056;-84
2021/09/16 07:01:38;;;;;;;3.42;0.55;;;14.90;99.90;;;;;;4729700;30;20055;-84
2021/09/16 07:04:06;;;;;;;1.92;0.40;;;15.00;99.90;;;;;;4747034;30;20079;-84
2021/09/16 07:06:38;;;;;;;2.13;0.57;;;15.10;99.90;;;;;;4730888;30;20059;-86
2021/09/16 07:09:07;;;;;;;8.07;0.70;;;15.20;99.90;;;;;;4746692;30;20056;-83
2021/09/16 07:11:34;;;;;;;3.38;0.57;;;15.40;99.90;;;;;;4718221;30;20048;-84
2021/09/16 07:14:01;;;;;;;2.40;0.50;;;15.60;99.90;;;;;;4717250;30;20055;-84
2021/09/16 07:16:27;;;;;;;3.75;0.63;;;15.80;99.90;;;;;;4729395;30;20063;-84
2021/09/16 07:18:54;;;;;;;6.10;0.60;;;16.00;99.90;;;;;;4745200;30;20066;-84
2021/09/16 07:21:21;;;;;;;6.78;0.60;;;16.20;99.90;;;;;;4732258;30;20063;-84
2021/09/16 07:23:48;;;;;;;4.55;1.02;;;16.30;99.90;;;;;;4702935;30;20063;-83
2021/09/16 07:26:14;;;;;;;2.35;0.60;;;16.40;99.90;;;;;;4731675;30;20043;-83
2021/09/16 07:28:41;;;;;;;4.85;0.60;;;16.50;99.90;;;;;;4732252;30;20058;-83
2021/09/16 07:31:08;;;;;;;2.05;0.50;;;16.60;99.90;;;;;;4718514;30;20156;-83
2021/09/16 07:33:35;;;;;;;3.25;0.65;;;16.70;99.90;;;;;;4747258;30;20036;-83
2021/09/16 07:36:01;;;;;;;6.53;0.60;;;16.90;99.90;;;;;;4746840;30;20040;-83
2021/09/16 07:38:28;;;;;;;3.58;0.70;;;17.00;99.90;;;;;;4704039;30;20056;-84
2021/09/16 07:40:55;;;;;;;3.58;0.77;;;17.20;99.90;;;;;;4731000;30;20104;-83
2021/09/16 07:43:21;;;;;;;3.70;0.60;;;17.30;99.90;;;;;;4720398;30;20338;-83
2021/09/16 07:45:48;;;;;;;4.28;0.50;;;17.50;99.90;;;;;;4719882;30;20071;-82
2021/09/16 07:48:16;;;;;;;4.05;0.50;;;17.70;99.90;;;;;;4749175;30;20498;-85
2021/09/16 07:50:42;;;;;;;4.40;0.50;;;17.90;99.90;;;;;;4736249;30;20412;-84
2021/09/16 07:53:10;;;;;;;2.78;0.50;;;18.10;99.90;;;;;;4720448;30;20096;-85
2021/09/16 07:55:37;;;;;;;2.78;0.60;;;18.20;99.90;;;;;;4703984;30;20067;-86
2021/09/16 07:58:06;;;;;;;4.82;0.60;;;18.20;99.90;;;;;;4732562;30;20111;-88
2021/09/16 08:00:33;;;;;;;3.05;0.50;;;18.20;99.90;;;;;;4720099;30;20477;-86
2021/09/16 08:03:00;;;;;;;2.70;0.55;;;18.30;99.90;;;;;;4720253;30;20044;-87
2021/09/16 08:05:27;;;;;;;4.57;0.73;;;18.30;99.90;;;;;;4735791;30;20393;-87
2021/09/16 08:07:54;;;;;;;5.20;0.63;;;18.40;99.90;;;;;;4751020;30;20622;-84
2021/09/16 08:10:21;;;;;;;7.22;1.23;;;18.50;99.90;;;;;;4739635;30;20790;-85
2021/09/16 08:12:50;;;;;;;3.28;0.50;;;18.60;99.90;;;;;;4756840;30;20396;-82
2021/09/16 08:15:18;;;;;;;2.85;0.50;;;18.70;99.90;;;;;;4740228;30;20378;-85
2021/09/16 08:17:45;;;;;;;2.78;0.70;;;18.70;99.90;;;;;;4756106;30;20036;-85
2021/09/16 08:20:17;;;;;;;3.92;0.60;;;18.70;99.90;;;;;;4749789;30;20055;-84
2021/09/16 08:22:45;;;;;;;6.22;0.73;;;18.70;99.90;;;;;;4725094;30;20060;-87
2021/09/16 08:25:16;;;;;;;4.20;0.60;;;18.70;99.90;;;;;;4735403;30;20404;-86
2021/09/16 08:27:43;;;;;;;3.35;0.60;;;18.70;99.90;;;;;;4749166;30;20617;-87
2021/09/16 08:30:13;;;;;;;3.40;0.60;;;18.70;99.90;;;;;;4731184;30;20519;-88
2021/09/16 08:32:51;;;;;;;3.15;0.47;;;18.70;99.90;;;;;;4751250;30;20055;-86
2021/09/16 08:35:19;;;;;;;2.75;0.50;;;18.80;99.90;;;;;;4728620;30;20056;-86
2021/09/16 08:37:51;;;;;;;1.38;0.40;;;18.90;99.90;;;;;;4707035;30;20049;-86
2021/09/16 08:40:19;;;;;;;;;;;19.00;99.90;;;;;;4733750;30;20060;-86
2021/09/16 08:42:52;;;;;;;4.55;0.45;;;19.10;99.90;;;;;;4722722;30;19918;-86
2021/09/16 08:45:23;;;;;;;2.65;0.40;;;19.30;99.90;;;;;;4721746;30;20075;-86
2021/09/16 08:47:54;;;;;;;1.73;0.40;;;19.40;99.90;;;;;;4747532;30;20496;-85
2021/09/16 08:50:27;;;;;;;4.47;0.50;;;19.50;99.90;;;;;;4719246;30;20373;-89
2021/09/16 08:52:54;;;;;;;0.98;0.30;;;19.50;99.90;;;;;;4750650;30;20047;-86
2021/09/16 08:55:34;;;;;;;3.45;0.75;;;19.40;99.90;;;;;;4733074;30;20039;-85
2021/09/16 08:58:04;;;;;;;1.42;0.40;;;19.50;99.90;;;;;;4744633;30;20044;-85
2021/09/16 09:00:34;;;;;;;3.28;0.50;;;19.50;99.90;;;;;;4747368;30;20032;-86
2021/09/16 09:03:08;;;;;;;2.30;0.40;;;19.60;99.90;;;;;;4715066;30;20489;-86
2021/09/16 09:05:51;;;;;;;3.45;0.52;;;19.60;99.90;;;;;;4716256;30;20059;-87
2021/09/16 09:09:19;;;;;;;4.55;0.90;;;19.70;99.90;;;;;;4744705;30;20055;-90
2021/09/16 09:12:03;;;;;;;4.82;0.50;;;19.70;99.90;;;;;;4746451;30;20036;-87
2021/09/16 09:14:32;;;;;;;4.20;0.60;;;19.60;99.90;;;;;;4730161;30;20056;-84
2021/09/16 09:17:19;;;;;;;3.05;0.70;;;19.50;99.90;;;;;;4729890;30;20059;-85
2021/09/16 09:19:47;;;;;;;2.72;0.40;;;19.40;99.90;;;;;;4732354;30;20060;-83
2021/09/16 09:22:16;;;;;;;3.30;0.68;;;19.50;99.90;;;;;;4732905;30;20413;-85
2021/09/16 09:24:47;;;;;;;2.85;0.70;;;19.60;99.90;;;;;;4730481;30;20477;-85
2021/09/16 09:27:32;;;;;;;4.47;0.93;;;19.50;99.90;;;;;;4723320;30;20948;-83
2021/09/16 09:30:08;;;;;;;3.33;0.63;;;19.60;99.90;;;;;;4744229;30;20044;-85
2021/09/16 09:32:47;;;;;;;4.50;0.60;;;19.60;99.90;;;;;;4736252;30;20040;-86
2021/09/16 09:35:32;;;;;;;4.25;0.85;;;19.80;99.90;;;;;;4733987;30;20055;-86
2021/09/16 09:38:14;;;;;;;4.78;0.95;;;20.00;99.90;;;;;;4750056;30;20489;-86
2021/09/16 09:40:42;;;;;;;;;;;20.20;99.90;;;;;;4721275;30;20048;-86
2021/09/16 09:43:30;;;;;;;1.92;0.60;;;20.20;99.90;;;;;;4736276;30;20306;-85
2021/09/16 09:46:06;;;;;;;1.92;0.55;;;20.30;99.90;;;;;;4753037;30;20524;-88
2021/09/16 09:48:41;;;;;;;1.58;0.38;;;20.40;99.90;;;;;;4749100;30;20516;-88
2021/09/16 09:51:09;;;;;;;4.78;0.63;;;20.60;99.90;;;;;;4740140;30;20048;-87
2021/09/16 09:53:38;;;;;;;4.20;0.50;;;20.80;99.90;;;;;;4750794;30;20050;-87
2021/09/16 09:56:17;;;;;;;2.38;0.68;;;20.80;99.90;;;;;;4751836;30;20470;-87
2021/09/16 09:58:47;;;;;;;2.85;0.60;;;20.90;99.90;;;;;;4739185;30;20047;-86
2021/09/16 10:01:30;;;;;;;3.67;0.57;;;21.00;99.90;;;;;;4724630;30;20048;-87
2021/09/16 10:03:58;;;;;;;5.38;0.60;;;21.10;99.90;;;;;;4731917;30;20052;-88
2021/09/16 10:06:36;;;;;;;4.55;0.65;;;21.20;99.90;;;;;;4730263;30;20518;-88
2021/09/16 10:09:10;;;;;;;4.38;0.52;;;21.30;99.80;;;;;;4736064;30;20044;-89
2021/09/16 10:11:43;;;;;;;2.40;0.30;;;21.40;99.30;;;;;;4751287;30;20477;-89
2021/09/16 10:14:33;;;;;;;3.70;0.40;;;21.50;99.90;;;;;;4727617;30;20048;-89
2021/09/16 10:17:10;;;;;;;1.42;0.40;;;21.70;99.90;;;;;;4754651;30;20056;-91
2021/09/16 10:19:42;;;;;;;5.03;0.52;;;22.00;99.80;;;;;;4730136;30;20056;-89
2021/09/16 10:22:10;;;;;;;2.90;0.40;;;22.40;99.50;;;;;;4739325;30;20082;-89
2021/09/16 10:24:37;;;;;;;3.75;0.40;;;22.70;99.50;;;;;;4725032;30;20515;-89
2021/09/16 10:27:49;;;;;;;3.03;0.50;;;23.00;99.10;;;;;;4740768;30;20416;-89
2021/09/16 10:30:22;;;;;;;2.72;0.47;;;22.90;97.70;;;;;;4737144;30;20039;-89
2021/09/16 10:33:12;;;;;;;2.75;0.40;;;22.70;96.90;;;;;;4746479;30;20052;-88
2021/09/16 10:35:46;;;;;;;;;;;22.80;97.10;;;;;;4740617;30;20039;-89
2021/09/16 10:38:29;;;;;;;1.63;0.40;;;23.10;98.20;;;;;;4748109;30;19941;-90
2021/09/16 10:41:22;;;;;;;2.92;0.50;;;23.50;96.50;;;;;;4748727;30;20067;-86
2021/09/16 10:43:58;;;;;;;1.90;0.65;;;24.00;95.10;;;;;;4746655;30;20386;-88
2021/09/16 10:46:47;;;;;;;1.63;0.40;;;24.30;94.20;;;;;;4717209;30;20074;-88
2021/09/16 10:49:23;;;;;;;1.60;0.40;;;24.70;93.70;;;;;;4731804;30;20055;-87
2021/09/16 10:51:55;;;;;;;2.03;0.45;;;25.10;92.80;;;;;;4725459;30;20045;-87
2021/09/16 10:54:27;;;;;;;2.63;0.50;;;25.50;91.70;;;;;;4733263;30;20048;-87
2021/09/16 10:57:05;;;;;;;2.63;0.38;;;25.80;90.80;;;;;;4720075;30;20385;-87
2021/09/16 10:59:51;;;;;;;3.78;0.45;;;26.10;90.20;;;;;;5089902;27;20749;-87
2021/09/16 11:02:43;;;;;;;1.08;0.30;;;26.40;87.80;;;;;;5123385;27;20818;-88
2021/09/16 11:05:40;;;;;;;2.03;0.40;;;26.60;86.00;;;;;;5089052;27;20905;-88
2021/09/16 11:08:07;;;;;;;2.58;0.40;;;27.00;85.30;;;;;;5064369;28;20933;-88
2021/09/16 11:10:37;;;;;;;3.42;0.40;;;27.20;83.50;;;;;;5062559;28;20045;-89
2021/09/16 11:13:39;;;;;;;1.95;0.40;;;27.40;82.20;;;;;;5063190;28;20028;-90
2021/09/16 11:16:07;;;;;;;1.80;0.43;;;27.60;81.60;;;;;;5063168;28;20047;-88
2021/09/16 11:18:34;;;;;;;1.92;0.40;;;27.60;80.00;;;;;;5059166;28;20055;-88
2021/09/16 11:22:19;;;;;;;1.50;0.40;;;27.10;79.20;;;;;;5110509;27;20333;-88
2021/09/16 11:25:04;;;;;;;2.15;0.30;;;26.10;79.40;;;;;;5069058;27;1599993;-88
2021/09/16 11:27:55;;;;;;;1.95;0.47;;;26.00;79.90;;;;;;5032874;27;1476782;-89
2021/09/16 11:41:04;;;;;;;2.33;0.50;;;25.80;79.40;;;;;;5132618;27;20423;-88
2021/09/16 11:43:52;;;;;;;1.23;0.40;;;25.30;81.80;;;;;;5156515;27;20661;-87
2021/09/16 11:46:34;;;;;;;1.70;0.35;;;25.70;80.40;;;;;;5105816;27;1692530;-89
2021/09/16 11:49:18;;;;;;;1.60;0.30;;;26.10;79.40;;;;;;5150649;27;20121;-90
2021/09/16 11:52:31;;;;;;;1.05;0.40;;;26.60;78.00;;;;;;5093728;28;20763;-89
2021/09/16 12:18:44;;;;;;;1.50;0.45;;;25.90;73.90;;;;;;6201218;22;1460905;-84
2021/09/16 12:31:55;;;;;;;1.90;0.50;;;25.30;75.40;;;;;;5137980;27;20317;-83
2021/09/16 12:34:56;;;;;;;1.10;0.50;;;26.10;75.10;;;;;;5061167;28;20462;-83
2021/09/16 12:37:39;;;;;;;2.17;0.40;;;25.90;74.60;;;;;;5102570;27;20978;-83
2021/09/16 12:40:27;;;;;;;3.03;0.40;;;26.30;73.80;;;;;;5094582;27;20400;-84
2021/09/16 12:43:23;;;;;;;0.82;0.30;;;26.70;72.10;;;;;;5128789;27;20537;-84
2021/09/16 12:46:17;;;;;;;2.42;0.40;;;26.50;71.10;;;;;;5106331;27;20947;-84
2021/09/16 12:49:27;;;;;;;2.78;0.30;;;26.10;72.30;;;;;;5093762;28;20389;-84
2021/09/16 12:52:25;;;;;;;2.65;0.43;;;25.50;73.80;;;;;;5088280;27;20796;-83
2021/09/16 12:55:15;;;;;;;1.63;0.40;;;25.10;74.60;;;;;;5129001;27;20491;-82
2021/09/16 12:58:06;;;;;;;0.73;0.30;;;24.70;75.20;;;;;;5068696;28;20801;-84
2021/09/16 13:01:04;;;;;;;1.27;0.40;;;24.60;76.70;;;;;;5110352;27;1539032;-83
2021/09/16 13:04:07;;;;;;;2.92;0.52;;;24.30;76.70;;;;;;5129372;27;20950;-84
2021/09/16 13:07:11;;;;;;;1.50;0.40;;;24.00;77.40;;;;;;5081877;27;20452;-84
2021/09/16 13:10:24;;;;;;;3.05;0.50;;;23.80;78.40;;;;;;5135177;27;20454;-83
2021/09/16 13:13:32;;;;;;;1.23;0.40;;;23.70;79.00;;;;;;5111754;27;20125;-84
2021/09/16 13:26:43;;;;;;;1.70;0.45;;;23.50;79.80;;;;;;6132216;22;3467961;-83
2021/09/16 13:29:36;;;;;;;3.67;0.47;;;24.90;78.80;;;;;;5020471;28;20852;-84
2021/09/16 13:32:24;;;;;;;1.25;0.45;;;26.10;76.50;;;;;;5148064;27;20112;-85
2021/09/16 13:45:40;;;;;;;1.10;0.50;;;27.20;73.50;;;;;;5093077;28;20426;-84
2021/09/16 13:48:29;;;;;;;1.42;0.50;;;27.80;68.60;;;;;;5051119;27;1594121;-84
2021/09/16 14:01:41;;;;;;;1.40;0.60;;;27.90;67.80;;;;;;6013274;22;4163362;-83
2021/09/16 14:15:04;;;;;;;1.13;0.40;;;25.90;71.10;;;;;;5018944;27;2177474;-84
2021/09/16 14:28:11;;;;;;;1.67;0.40;;;23.50;78.20;;;;;;5694618;22;9748329;-85
2021/09/16 14:31:10;;;;;;;;;;;;;;;;;;;;;
2021/09/16 14:44:34;;;;;;;1.70;0.60;;;22.80;80.90;;;;;;6180232;22;1961136;-84
2021/09/16 14:57:45;;;;;;;0.80;0.50;;;22.40;81.80;;;;;;6004876;22;6520524;-84
2021/09/16 15:13:30;;;;;;;1.20;0.60;;;21.60;85.10;;;;;;6119036;22;1549504;-84
2021/09/16 15:40:10;;;;;;;2.00;0.70;;;21.30;87.20;;;;;;6225616;22;20051;-91
2021/09/16 16:08:02;;;;;;;2.35;0.50;;;20.80;89.40;;;;;;5066643;28;20332;-88
2021/09/16 16:31:55;;;;;;;4.07;0.70;;;21.10;90.00;;;;;;5079726;28;20488;-86
2021/09/16 16:34:38;;;;;;;3.03;0.60;;;20.50;91.50;;;;;;5144855;27;20117;-86